Angle, Utah
Current Conditions -  °F | °C
As of 1:53 PM on Friday 31 Oct 2014 (Local Time) from KBCE Reporting Station
Clear Clear  
Wind Chill: 58°   Ceiling: Unl
Heat Index: 58°   Visibility: 10mi
Dew Point: 25°   Wind: 17mph
Humidity: 28%   Direction: 140°SE
Pressure: 30.18"   Gusts: NA
Location:  37.9601°N, 112.141°W
Report Text: KBCE 311953Z AUTO 14015KT 10SM CLR 14/M04 A3018 RMK AO2 SLP153 T01441039 TSNO
Loading
Personal Weather Stations






























Interactive Weather Map
Tropical Storm Tracking
New forecast layout! Learn more

10-Day Weather Forecast

Advertisements
Track Severe Weather on mobile